DFOO/BOY METAR and TAF weather

Enter ICAO airport designator
Station Type Date Time Source
DFOO METAR 2020/04/06 18:00 UTC NOAA

DFOO 061800Z 03005KT 350V060 CAVOK 40/10 Q1009


Station Type Date Time Source
DFOO Decoded METAR 2020/04/06 18:00 UTC NOAA

Bobo-Dioulasso, Burkina Faso (DFOO) 11-10N 004-19W 460M
Apr 06, 2020 - 02:00 PM EDT / 2020.04.06 1800 UTC
Wind: from the NNE (030 degrees) at 6 MPH (5 KT) (direction variable):0
Visibility: greater than 7 mile(s):0
Temperature: 104 F (40 C)
Heat index: 100.9 F (38.3 C):1
Dew Point: 50 F (10 C)
Relative Humidity: 16%
Pressure (altimeter): 29.80 in. Hg (1009 hPa)
ob: DFOO 061800Z 03005KT 350V060 CAVOK 40/10 Q1009
cycle: 18

Station Type Date Time Source
DFOO TAF 2020/04/06 18:03 UTC NOAA

TAF DFOO 061700Z 0618/0718 VRB08KT CAVOK PROB30
TEMPO 0618/0624 TS FEW020 FEW036CB

Example: see airport list